createdAt,value
2023-04-30T00:02:20.401Z,9.77
2023-04-30T00:04:47.211Z,9.52
2023-04-30T00:07:14.507Z,9.65
2023-04-30T00:09:41.299Z,10.02
2023-04-30T00:12:07.876Z,10.20
2023-04-30T00:14:34.915Z,9.55
2023-04-30T00:17:01.672Z,10.93
2023-04-30T00:19:28.347Z,9.85
2023-04-30T00:21:55.012Z,9.40
2023-04-30T00:24:21.739Z,9.48
2023-04-30T00:26:48.529Z,10.23
2023-04-30T00:29:15.205Z,10.05
2023-04-30T00:31:42.035Z,10.10
2023-04-30T00:34:08.760Z,9.60
2023-04-30T00:36:35.649Z,10.13
2023-04-30T00:39:02.260Z,9.45
2023-04-30T00:41:30.525Z,9.65
2023-04-30T00:43:57.165Z,9.65
2023-04-30T00:46:23.935Z,10.13
2023-04-30T00:48:50.891Z,9.77
2023-04-30T00:51:17.613Z,9.43
2023-04-30T00:53:44.485Z,9.30
2023-04-30T00:56:12.822Z,9.35
2023-04-30T00:58:40.248Z,10.57
2023-04-30T01:01:07.162Z,11.27
2023-04-30T01:03:36.328Z,11.23
2023-04-30T01:06:03.493Z,10.60
2023-04-30T01:08:32.079Z,10.40
2023-04-30T01:11:17.547Z,10.98
2023-04-30T01:13:58.523Z,10.35
2023-04-30T01:16:33.572Z,10.98
2023-04-30T01:19:20.567Z,9.15
2023-04-30T01:21:49.232Z,10.38
2023-04-30T01:24:42.189Z,8.77
2023-04-30T01:27:14.881Z,8.88
2023-04-30T01:29:43.512Z,9.35
2023-04-30T01:32:11.397Z,8.68
2023-04-30T01:34:38.352Z,7.53
2023-04-30T01:38:00.169Z,7.47
2023-04-30T01:40:43.090Z,8.30
2023-04-30T01:43:23.552Z,7.55
2023-04-30T01:46:01.721Z,8.48
2023-04-30T01:48:43.872Z,7.35
2023-04-30T01:51:20.935Z,7.63
2023-04-30T01:53:47.884Z,7.38
2023-04-30T01:56:40.023Z,7.43
2023-04-30T01:59:08.485Z,5.82
2023-04-30T02:01:35.957Z,7.30
2023-04-30T02:04:03.839Z,7.03
2023-04-30T02:06:31.474Z,7.10
2023-04-30T02:09:06.228Z,7.75
2023-04-30T02:11:32.877Z,7.65
2023-04-30T02:13:59.457Z,7.30
2023-04-30T02:16:26.107Z,7.68
2023-04-30T02:18:52.834Z,7.75
2023-04-30T02:21:19.499Z,7.13
2023-04-30T02:23:46.095Z,6.95
2023-04-30T02:26:12.740Z,8.18
2023-04-30T02:28:39.463Z,6.82
2023-04-30T02:31:06.182Z,5.65
2023-04-30T02:33:32.833Z,5.55
2023-04-30T02:36:00.820Z,5.32
2023-04-30T02:38:27.645Z,4.43
2023-04-30T02:40:54.369Z,3.63
2023-04-30T02:43:21.062Z,3.22
2023-04-30T02:45:49.454Z,2.60
2023-04-30T02:48:16.210Z,2.22
2023-04-30T02:50:42.834Z,2.80
2023-04-30T02:53:09.447Z,1.50
2023-04-30T02:55:36.078Z,1.40
2023-04-30T02:58:02.967Z,1.60
2023-04-30T03:00:38.655Z,1.63
2023-04-30T03:03:05.453Z,1.90
2023-04-30T03:05:32.186Z,2.10
2023-04-30T03:07:58.812Z,2.00
2023-04-30T03:10:25.511Z,3.20
2023-04-30T03:12:53.880Z,3.58
2023-04-30T03:15:20.526Z,2.97
2023-04-30T03:17:47.245Z,2.97
2023-04-30T03:20:14.391Z,2.70
2023-04-30T03:22:41.816Z,3.42
2023-04-30T03:25:09.202Z,2.97
2023-04-30T03:27:35.878Z,3.20
2023-04-30T03:30:02.536Z,3.15
2023-04-30T03:32:29.148Z,3.08
2023-04-30T03:34:55.932Z,3.63
2023-04-30T03:37:22.534Z,3.70
2023-04-30T03:39:49.163Z,3.10
2023-04-30T03:42:16.077Z,3.42
2023-04-30T03:44:42.740Z,3.17
2023-04-30T03:47:09.635Z,3.33
2023-04-30T03:49:36.318Z,3.05
2023-04-30T03:52:03.630Z,3.00
2023-04-30T03:54:30.558Z,3.45
2023-04-30T03:56:57.775Z,3.38
2023-04-30T03:59:24.479Z,3.40
2023-04-30T04:01:51.879Z,3.65
2023-04-30T04:04:18.731Z,2.88
2023-04-30T04:06:45.504Z,3.22
2023-04-30T04:09:12.220Z,3.05
2023-04-30T04:11:38.894Z,3.13
2023-04-30T04:14:05.714Z,2.92
2023-04-30T04:16:32.428Z,3.08
2023-04-30T04:18:59.202Z,2.45
2023-04-30T04:21:25.889Z,2.50
2023-04-30T04:23:52.598Z,3.15
2023-04-30T04:26:21.643Z,2.67
2023-04-30T04:28:48.488Z,2.58
2023-04-30T04:31:15.217Z,2.30
2023-04-30T04:33:41.916Z,2.40
2023-04-30T04:36:08.672Z,2.50
2023-04-30T04:38:35.423Z,2.33
2023-04-30T04:41:02.129Z,1.90
2023-04-30T04:43:28.875Z,2.28
2023-04-30T04:45:55.586Z,1.92
2023-04-30T04:48:22.185Z,2.13
2023-04-30T04:50:48.861Z,1.98
2023-04-30T04:53:15.477Z,5.40
2023-04-30T04:55:42.154Z,1.63
2023-04-30T04:58:08.812Z,1.88
2023-04-30T05:00:35.694Z,2.20
2023-04-30T05:03:02.443Z,1.88
2023-04-30T05:05:29.164Z,2.00
2023-04-30T05:07:56.063Z,1.90
2023-04-30T05:10:22.727Z,2.45
2023-04-30T05:12:49.299Z,2.28
2023-04-30T05:15:15.899Z,2.08
2023-04-30T05:17:42.667Z,2.13
2023-04-30T05:20:10.081Z,2.00
2023-04-30T05:22:36.689Z,2.72
2023-04-30T05:25:03.555Z,3.95
2023-04-30T05:27:30.442Z,2.33
2023-04-30T05:29:57.296Z,2.80
2023-04-30T05:32:24.152Z,3.30
2023-04-30T05:34:50.930Z,2.88
2023-04-30T05:37:19.506Z,3.63
2023-04-30T05:39:46.750Z,3.83
2023-04-30T05:42:13.474Z,3.45
2023-04-30T05:44:40.984Z,3.08
2023-04-30T05:47:07.758Z,3.88
2023-04-30T05:49:36.028Z,3.25
2023-04-30T05:52:03.769Z,3.05
2023-04-30T05:54:31.438Z,2.90
2023-04-30T05:56:58.620Z,2.63
2023-04-30T05:59:26.083Z,3.45
2023-04-30T06:01:55.373Z,3.33
2023-04-30T06:04:22.050Z,3.17
2023-04-30T06:06:48.804Z,2.72
2023-04-30T06:09:16.123Z,1.30
2023-04-30T06:11:43.091Z,1.10
2023-04-30T06:14:10.506Z,1.50
2023-04-30T06:16:37.997Z,0.80
2023-04-30T06:19:04.636Z,0.75
2023-04-30T06:21:31.931Z,0.75
2023-04-30T06:23:58.628Z,1.00
2023-04-30T06:26:25.337Z,1.20
2023-04-30T06:28:52.096Z,1.33
2023-04-30T06:31:18.853Z,1.15
2023-04-30T06:33:45.669Z,1.23
2023-04-30T06:36:12.327Z,1.13
2023-04-30T06:38:39.051Z,1.65
2023-04-30T06:41:05.816Z,1.27
2023-04-30T06:43:32.438Z,1.10
2023-04-30T06:45:59.161Z,1.50
2023-04-30T06:48:25.949Z,1.55
2023-04-30T06:50:59.740Z,1.83
2023-04-30T06:53:26.532Z,1.38
2023-04-30T06:55:53.220Z,1.67
2023-04-30T06:58:19.920Z,1.30
2023-04-30T07:00:46.648Z,1.58
2023-04-30T07:03:14.060Z,1.40
2023-04-30T07:05:41.631Z,1.83
2023-04-30T07:08:08.266Z,1.50
2023-04-30T07:10:34.915Z,1.65
2023-04-30T07:13:01.532Z,1.83
2023-04-30T07:15:28.151Z,1.38
2023-04-30T07:17:55.252Z,1.55
2023-04-30T07:20:22.019Z,1.40
2023-04-30T07:22:48.731Z,1.83
2023-04-30T07:25:15.643Z,1.45
2023-04-30T07:27:42.322Z,1.80
2023-04-30T07:30:10.454Z,1.83
2023-04-30T07:32:38.669Z,1.48
2023-04-30T07:35:06.289Z,1.80
2023-04-30T07:37:35.431Z,1.20
2023-04-30T07:40:03.654Z,1.30
2023-04-30T07:42:30.318Z,1.10
2023-04-30T07:44:57.527Z,1.63
2023-04-30T07:47:25.502Z,1.00
2023-04-30T07:49:52.296Z,1.42
2023-04-30T07:52:18.939Z,1.55
2023-04-30T07:54:45.685Z,1.40
2023-04-30T07:57:13.060Z,1.15
2023-04-30T07:59:39.735Z,1.50
2023-04-30T08:02:07.100Z,1.20
2023-04-30T08:04:33.946Z,1.20
2023-04-30T08:07:01.889Z,1.23
2023-04-30T08:09:28.556Z,1.55
2023-04-30T08:11:55.241Z,1.20
2023-04-30T08:14:22.078Z,1.80
2023-04-30T08:16:48.736Z,1.00
2023-04-30T08:19:15.525Z,1.25
2023-04-30T08:21:42.290Z,1.25
2023-04-30T08:24:08.969Z,0.95
2023-04-30T08:26:35.699Z,1.50
2023-04-30T08:29:02.697Z,1.20
2023-04-30T08:31:29.373Z,1.20
2023-04-30T08:33:56.136Z,1.40
2023-04-30T08:36:23.868Z,1.48
2023-04-30T08:38:50.652Z,1.27
2023-04-30T08:41:17.618Z,1.08
2023-04-30T08:43:45.302Z,1.10
2023-04-30T08:46:17.182Z,0.70
2023-04-30T08:48:45.085Z,0.65
2023-04-30T08:51:11.860Z,1.27
2023-04-30T08:53:38.979Z,0.80
2023-04-30T08:56:06.011Z,0.50
2023-04-30T08:58:32.865Z,0.80
2023-04-30T09:01:00.329Z,1.08
2023-04-30T09:03:28.513Z,0.68
2023-04-30T09:05:55.472Z,0.70
2023-04-30T09:08:45.038Z,0.60
2023-04-30T09:11:22.922Z,0.88
2023-04-30T09:13:54.645Z,0.43
2023-04-30T09:18:48.986Z,0.82
2023-04-30T09:21:16.168Z,1.10
2023-04-30T09:24:04.006Z,0.68
2023-04-30T09:26:36.631Z,0.73
2023-04-30T09:29:08.182Z,0.60
2023-04-30T09:34:04.180Z,1.27
2023-04-30T09:36:31.841Z,1.05
2023-04-30T09:39:09.845Z,0.68
2023-04-30T09:41:37.912Z,0.60
2023-04-30T09:44:04.747Z,0.93
2023-04-30T09:46:33.311Z,0.80
2023-04-30T09:49:01.826Z,1.10
2023-04-30T09:51:28.859Z,0.95
2023-04-30T09:53:56.504Z,1.30
2023-04-30T09:56:25.114Z,0.90
2023-04-30T09:58:53.972Z,1.00
2023-04-30T10:01:27.261Z,1.13
2023-04-30T10:03:54.115Z,0.65
2023-04-30T10:06:22.077Z,0.57
2023-04-30T10:08:53.269Z,1.02
2023-04-30T10:11:21.992Z,0.60
2023-04-30T10:14:17.969Z,0.63
2023-04-30T10:16:54.889Z,0.73
2023-04-30T10:19:33.954Z,0.73
2023-04-30T10:22:02.189Z,1.00
2023-04-30T10:24:29.234Z,1.65
2023-04-30T10:26:58.672Z,1.00
2023-04-30T10:29:25.438Z,1.35
2023-04-30T10:31:53.155Z,1.05
2023-04-30T10:34:55.440Z,0.70
2023-04-30T10:37:40.249Z,0.47
2023-04-30T10:40:09.261Z,0.80
2023-04-30T10:42:36.758Z,0.63
2023-04-30T10:45:04.109Z,1.08
2023-04-30T10:47:31.488Z,0.90
2023-04-30T10:50:05.384Z,1.45
2023-04-30T10:52:32.091Z,1.00
2023-04-30T10:54:58.807Z,1.20
2023-04-30T10:57:29.828Z,1.00
2023-04-30T11:00:09.930Z,1.58
2023-04-30T11:02:44.927Z,0.95
2023-04-30T11:05:13.504Z,0.90
2023-04-30T11:08:11.277Z,0.88
2023-04-30T11:10:38.195Z,0.90
2023-04-30T11:13:06.998Z,1.60
2023-04-30T11:15:39.541Z,1.20
2023-04-30T11:18:08.739Z,1.00
2023-04-30T11:20:41.822Z,1.10
2023-04-30T11:23:17.451Z,1.58
2023-04-30T11:25:55.298Z,1.20
2023-04-30T11:28:25.631Z,1.42
2023-04-30T11:30:57.204Z,1.30
2023-04-30T11:33:26.978Z,1.00
2023-04-30T11:35:55.891Z,2.28
2023-04-30T11:38:27.478Z,1.35
2023-04-30T11:40:55.025Z,2.45
2023-04-30T11:43:29.222Z,1.10
2023-04-30T11:46:13.432Z,1.23
2023-04-30T11:48:45.243Z,0.65
2023-04-30T11:53:42.944Z,0.93
2023-04-30T11:56:09.867Z,0.85
2023-04-30T11:58:40.587Z,0.90
2023-04-30T12:01:09.877Z,1.30
2023-04-30T12:03:46.836Z,2.65
2023-04-30T12:06:32.427Z,2.40
2023-04-30T12:09:01.728Z,2.65
2023-04-30T12:11:30.756Z,1.88
2023-04-30T12:14:03.637Z,1.60
2023-04-30T12:16:51.027Z,1.20
2023-04-30T12:19:19.372Z,1.42
2023-04-30T12:21:47.589Z,1.42
2023-04-30T12:24:15.475Z,2.85
2023-04-30T12:26:42.700Z,1.55
2023-04-30T12:29:13.598Z,1.25
2023-04-30T12:31:42.678Z,1.10
2023-04-30T12:34:12.829Z,0.60
2023-04-30T12:36:44.021Z,0.80
2023-04-30T12:39:11.698Z,1.05
2023-04-30T12:41:43.755Z,0.73
2023-04-30T12:46:43.750Z,0.70
2023-04-30T12:49:11.440Z,1.00
2023-04-30T12:51:42.021Z,0.90
2023-04-30T12:54:08.958Z,0.75
2023-04-30T12:56:35.665Z,0.80
2023-04-30T12:59:02.390Z,0.75
2023-04-30T13:01:29.418Z,1.10
2023-04-30T13:03:56.543Z,1.00
2023-04-30T13:06:23.777Z,0.80
2023-04-30T13:08:58.646Z,1.00
2023-04-30T13:11:27.128Z,1.70
2023-04-30T13:13:55.920Z,1.10
2023-04-30T13:16:24.605Z,1.10
2023-04-30T13:18:52.071Z,1.10
2023-04-30T13:21:18.695Z,0.90
2023-04-30T13:23:52.846Z,1.05
2023-04-30T13:26:21.498Z,1.17
2023-04-30T13:28:48.175Z,1.00
2023-04-30T13:31:14.904Z,0.60
2023-04-30T13:33:41.722Z,0.88
2023-04-30T13:36:08.437Z,0.80
2023-04-30T13:38:36.006Z,0.80
2023-04-30T13:41:02.696Z,1.27
2023-04-30T13:43:29.295Z,0.95
2023-04-30T13:45:56.117Z,0.65
2023-04-30T13:48:22.865Z,0.80
2023-04-30T13:50:49.939Z,2.25
2023-04-30T13:53:16.667Z,0.80
2023-04-30T13:55:43.423Z,1.30
2023-04-30T13:58:10.137Z,1.65
2023-04-30T14:00:36.971Z,1.50
2023-04-30T14:03:06.395Z,1.40
2023-04-30T14:05:36.479Z,1.35
2023-04-30T14:08:05.813Z,1.77
2023-04-30T14:13:01.650Z,1.40
2023-04-30T14:15:30.755Z,1.50
2023-04-30T14:17:57.516Z,1.23
2023-04-30T14:20:25.248Z,1.63
2023-04-30T14:22:52.661Z,1.27
2023-04-30T14:25:19.797Z,1.65
2023-04-30T14:27:47.526Z,1.65
2023-04-30T14:30:14.787Z,1.70
2023-04-30T14:32:41.547Z,1.30
2023-04-30T14:35:09.751Z,1.40
2023-04-30T14:37:36.632Z,1.35
2023-04-30T14:40:05.219Z,1.25
2023-04-30T14:42:32.146Z,1.70
2023-04-30T14:44:58.797Z,2.03
2023-04-30T14:47:27.446Z,1.90
2023-04-30T14:49:54.507Z,1.70
2023-04-30T14:52:21.478Z,1.33
2023-04-30T14:54:48.195Z,1.73
2023-04-30T14:57:15.141Z,1.40
2023-04-30T14:59:42.025Z,1.20
2023-04-30T15:02:09.481Z,1.60
2023-04-30T15:04:36.410Z,1.63
2023-04-30T15:07:03.043Z,1.25
2023-04-30T15:09:29.995Z,1.17
2023-04-30T15:11:57.246Z,1.48
2023-04-30T15:14:24.012Z,1.10
2023-04-30T15:16:51.286Z,1.58
2023-04-30T15:19:18.100Z,2.28
2023-04-30T15:21:46.880Z,1.08
2023-04-30T15:24:16.096Z,1.35
2023-04-30T15:26:45.845Z,1.30
2023-04-30T15:29:12.537Z,1.30
2023-04-30T15:31:39.239Z,3.75
2023-04-30T15:34:06.059Z,1.65
2023-04-30T15:36:33.299Z,1.48
2023-04-30T15:39:00.188Z,1.60
2023-04-30T15:41:26.834Z,1.33
2023-04-30T15:43:53.688Z,1.15
2023-04-30T15:46:20.469Z,1.30
2023-04-30T15:48:47.133Z,1.73
2023-04-30T15:51:13.773Z,1.73
2023-04-30T15:53:40.379Z,1.88
2023-04-30T15:56:07.356Z,1.25
2023-04-30T15:58:34.067Z,1.20
2023-04-30T16:01:02.012Z,2.42
2023-04-30T16:03:28.857Z,1.02
2023-04-30T16:05:55.704Z,0.95
2023-04-30T16:08:22.431Z,1.13
2023-04-30T16:10:49.119Z,0.93
2023-04-30T16:13:15.892Z,0.90
2023-04-30T16:15:42.591Z,0.77
2023-04-30T16:18:10.166Z,1.30
2023-04-30T16:20:37.438Z,1.00
2023-04-30T16:23:04.892Z,1.20
2023-04-30T16:25:31.764Z,1.45
2023-04-30T16:27:58.818Z,0.70
2023-04-30T16:30:25.790Z,0.45
2023-04-30T16:32:52.719Z,1.00
2023-04-30T16:35:19.637Z,0.82
2023-04-30T16:37:46.273Z,1.50
2023-04-30T16:40:13.039Z,0.75
2023-04-30T16:42:39.673Z,1.25
2023-04-30T16:45:06.958Z,1.00
2023-04-30T16:47:33.685Z,0.98
2023-04-30T16:50:00.663Z,0.63
2023-04-30T16:52:28.290Z,1.00
2023-04-30T16:54:54.930Z,1.00
2023-04-30T16:57:23.845Z,1.33
2023-04-30T16:59:50.880Z,1.50
2023-04-30T17:02:18.459Z,1.65
2023-04-30T17:04:45.163Z,1.05
2023-04-30T17:07:12.795Z,1.40
2023-04-30T17:09:39.487Z,1.00
2023-04-30T17:12:06.192Z,1.60
2023-04-30T17:14:32.864Z,1.40
2023-04-30T17:16:59.584Z,1.27
2023-04-30T17:19:26.395Z,1.50
2023-04-30T17:21:53.130Z,2.70
2023-04-30T17:24:19.789Z,1.65
2023-04-30T17:26:46.434Z,1.20
2023-04-30T17:29:13.672Z,0.90
2023-04-30T17:31:40.806Z,1.10
2023-04-30T17:34:07.989Z,0.90
2023-04-30T17:36:34.947Z,1.35
2023-04-30T17:39:05.632Z,1.13
2023-04-30T17:41:32.845Z,1.40
2023-04-30T17:43:59.910Z,1.83
2023-04-30T17:46:26.806Z,2.83
2023-04-30T17:48:53.836Z,1.10
2023-04-30T17:51:20.637Z,0.88
2023-04-30T17:53:47.316Z,1.05
2023-04-30T17:56:13.984Z,0.82
2023-04-30T17:58:40.668Z,2.42
2023-04-30T18:01:08.083Z,1.02
2023-04-30T18:03:36.618Z,0.60
2023-04-30T18:06:03.954Z,0.57
2023-04-30T18:08:30.923Z,0.57
2023-04-30T18:10:58.391Z,0.80
2023-04-30T18:13:27.423Z,0.60
2023-04-30T18:15:54.360Z,0.73
2023-04-30T18:18:21.346Z,0.93
2023-04-30T18:20:48.014Z,0.50
2023-04-30T18:23:15.037Z,0.85
2023-04-30T18:25:43.629Z,0.55
2023-04-30T18:28:10.488Z,0.50
2023-04-30T18:30:37.626Z,0.60
2023-04-30T18:33:06.340Z,0.45
2023-04-30T18:35:34.044Z,2.03
2023-04-30T18:38:01.931Z,0.50
2023-04-30T18:40:28.964Z,0.40
2023-04-30T18:42:56.938Z,0.40
2023-04-30T18:45:23.964Z,0.70
2023-04-30T18:47:50.938Z,0.70
2023-04-30T18:50:18.120Z,1.42
2023-04-30T18:52:45.209Z,1.25
2023-04-30T18:55:13.939Z,1.08
2023-04-30T18:57:42.440Z,1.23
2023-04-30T19:00:10.499Z,2.08
2023-04-30T19:02:37.413Z,2.00
2023-04-30T19:05:04.965Z,2.10
2023-04-30T19:07:31.680Z,2.38
2023-04-30T19:09:58.549Z,2.53
2023-04-30T19:12:25.475Z,1.88
2023-04-30T19:14:52.075Z,1.30
2023-04-30T19:17:21.492Z,1.35
2023-04-30T19:19:50.247Z,1.30
2023-04-30T19:22:17.465Z,1.17
2023-04-30T19:24:44.246Z,1.60
2023-04-30T19:27:11.965Z,1.15
2023-04-30T19:29:39.719Z,0.77
2023-04-30T19:32:06.796Z,0.50
2023-04-30T19:34:34.526Z,0.70
2023-04-30T19:37:01.463Z,0.90
2023-04-30T19:39:34.441Z,0.70
2023-04-30T19:42:01.664Z,0.73
2023-04-30T19:44:29.526Z,1.10
2023-04-30T19:46:56.597Z,0.70
2023-04-30T19:49:26.052Z,0.88
2023-04-30T19:51:53.806Z,0.75
2023-04-30T19:54:20.625Z,0.88
2023-04-30T19:56:47.497Z,1.63
2023-04-30T19:59:14.696Z,0.60
2023-04-30T20:01:42.487Z,0.80
2023-04-30T20:04:10.334Z,1.00
2023-04-30T20:06:37.115Z,1.02
2023-04-30T20:09:04.157Z,1.10
2023-04-30T20:11:30.948Z,1.45
2023-04-30T20:13:57.778Z,1.27
2023-04-30T20:16:25.736Z,1.13
2023-04-30T20:18:52.446Z,1.63
2023-04-30T20:21:20.620Z,1.40
2023-04-30T20:23:47.460Z,1.38
2023-04-30T20:26:14.905Z,1.20
2023-04-30T20:28:41.573Z,1.60
2023-04-30T20:31:10.109Z,1.60
2023-04-30T20:33:36.908Z,1.30
2023-04-30T20:36:03.770Z,1.50
2023-04-30T20:38:30.506Z,1.70
2023-04-30T20:40:58.671Z,1.20
2023-04-30T20:43:25.363Z,1.30
2023-04-30T20:45:52.386Z,1.50
2023-04-30T20:48:19.149Z,1.25
2023-04-30T20:50:46.269Z,1.10
2023-04-30T20:53:14.242Z,1.10
2023-04-30T20:55:41.258Z,2.28
2023-04-30T20:58:09.238Z,1.10
2023-04-30T21:00:36.417Z,1.73
2023-04-30T21:03:03.348Z,1.25
2023-04-30T21:05:30.325Z,1.10
2023-04-30T21:08:01.598Z,1.63
2023-04-30T21:10:35.618Z,1.30
2023-04-30T21:13:05.298Z,1.60
2023-04-30T21:15:34.456Z,1.25
2023-04-30T21:18:01.395Z,1.30
2023-04-30T21:20:31.420Z,1.38
2023-04-30T21:22:58.304Z,1.50
2023-04-30T21:25:24.950Z,1.02
2023-04-30T21:27:52.248Z,1.73
2023-04-30T21:30:19.183Z,1.20
2023-04-30T21:32:49.297Z,1.27
2023-04-30T21:35:16.149Z,1.20
2023-04-30T21:37:42.908Z,0.93
2023-04-30T21:40:10.137Z,0.98
2023-04-30T21:42:36.775Z,1.10
2023-04-30T21:45:03.635Z,1.27
2023-04-30T21:47:30.607Z,1.08
2023-04-30T21:49:58.664Z,1.33
2023-04-30T21:52:25.778Z,2.03
2023-04-30T21:54:52.546Z,1.08
2023-04-30T21:57:19.598Z,1.20
2023-04-30T21:59:46.410Z,1.70
2023-04-30T22:04:46.874Z,2.03
2023-04-30T22:07:13.527Z,2.22
2023-04-30T22:09:40.490Z,1.02
2023-04-30T22:12:08.456Z,1.65
2023-04-30T22:14:35.414Z,1.42
2023-04-30T22:17:02.183Z,1.50
2023-04-30T22:19:28.848Z,1.70
2023-04-30T22:21:55.559Z,1.38
2023-04-30T22:24:22.411Z,2.17
2023-04-30T22:26:49.134Z,1.48
2023-04-30T22:29:16.112Z,1.40
2023-04-30T22:31:43.688Z,1.60
2023-04-30T22:34:10.622Z,1.63
2023-04-30T22:36:37.307Z,2.03
2023-04-30T22:39:04.607Z,1.65
2023-04-30T22:41:34.183Z,1.48
2023-04-30T22:44:05.640Z,1.85
2023-04-30T22:46:34.855Z,1.60
2023-04-30T22:49:04.546Z,1.85
2023-04-30T22:51:31.922Z,2.55
2023-04-30T22:53:58.825Z,1.83
2023-04-30T22:56:25.710Z,1.65
2023-04-30T22:58:55.228Z,1.80
2023-04-30T23:01:22.575Z,1.88
2023-04-30T23:03:49.487Z,2.08
2023-04-30T23:06:16.266Z,1.70
2023-04-30T23:08:43.062Z,1.80
2023-04-30T23:11:09.774Z,2.25
2023-04-30T23:13:36.421Z,2.03
2023-04-30T23:16:05.639Z,1.95
2023-04-30T23:18:32.464Z,1.95
2023-04-30T23:20:59.264Z,1.85
2023-04-30T23:23:26.894Z,2.35
2023-04-30T23:25:54.809Z,2.22
2023-04-30T23:28:22.185Z,2.35
2023-04-30T23:30:55.141Z,1.80
2023-04-30T23:33:22.167Z,2.38
2023-04-30T23:35:49.183Z,1.75
2023-04-30T23:38:16.409Z,2.58
2023-04-30T23:40:43.384Z,1.70
2023-04-30T23:43:10.514Z,1.98
2023-04-30T23:45:41.358Z,1.95
2023-04-30T23:48:09.187Z,2.42
2023-04-30T23:50:36.536Z,1.85
2023-04-30T23:53:03.425Z,2.15
2023-04-30T23:55:30.148Z,2.60
2023-04-30T23:57:56.758Z,1.92
